sensor_id;sensor_type;location;lat;lon;timestamp;pressure;altitude;pressure_sealevel;temperature;humidity
74615;BME280;63121;51.458;-0.110;2022-12-18T00:00:46;102165.22;;;1.97;71.01
74615;BME280;63121;51.458;-0.110;2022-12-18T00:03:13;102164.00;;;1.89;71.23
74615;BME280;63121;51.458;-0.110;2022-12-18T00:05:49;102171.72;;;1.90;71.71
74615;BME280;63121;51.458;-0.110;2022-12-18T00:08:15;102172.38;;;1.86;71.26
74615;BME280;63121;51.458;-0.110;2022-12-18T00:10:40;102166.31;;;2.02;71.02
74615;BME280;63121;51.458;-0.110;2022-12-18T00:13:06;102158.59;;;1.82;70.77
74615;BME280;63121;51.458;-0.110;2022-12-18T00:15:36;102154.69;;;1.71;71.48
74615;BME280;63121;51.458;-0.110;2022-12-18T00:18:01;102149.59;;;1.71;71.45
74615;BME280;63121;51.458;-0.110;2022-12-18T00:20:27;102144.56;;;1.55;71.72
74615;BME280;63121;51.458;-0.110;2022-12-18T00:22:53;102141.06;;;1.71;71.50
74615;BME280;63121;51.458;-0.110;2022-12-18T00:25:18;102125.94;;;1.74;71.41
74615;BME280;63121;51.458;-0.110;2022-12-18T00:27:44;102130.22;;;1.75;71.66
74615;BME280;63121;51.458;-0.110;2022-12-18T00:30:10;102137.38;;;1.82;71.18
74615;BME280;63121;51.458;-0.110;2022-12-18T00:32:35;102132.72;;;1.73;71.52
74615;BME280;63121;51.458;-0.110;2022-12-18T00:35:01;102129.72;;;1.64;71.17
74615;BME280;63121;51.458;-0.110;2022-12-18T00:37:26;102126.31;;;1.63;71.26
74615;BME280;63121;51.458;-0.110;2022-12-18T00:39:52;102130.00;;;1.70;71.21
74615;BME280;63121;51.458;-0.110;2022-12-18T00:42:17;102130.63;;;1.65;70.64
74615;BME280;63121;51.458;-0.110;2022-12-18T00:45:01;102123.16;;;1.51;70.88
74615;BME280;63121;51.458;-0.110;2022-12-18T00:47:26;102128.56;;;1.75;70.67
74615;BME280;63121;51.458;-0.110;2022-12-18T00:49:51;102126.88;;;1.58;70.32
74615;BME280;63121;51.458;-0.110;2022-12-18T00:52:17;102134.22;;;1.52;70.53
74615;BME280;63121;51.458;-0.110;2022-12-18T00:54:42;102124.41;;;1.41;70.87
74615;BME280;63121;51.458;-0.110;2022-12-18T00:57:07;102131.31;;;1.44;70.31
74615;BME280;63121;51.458;-0.110;2022-12-18T00:59:33;102129.78;;;1.66;70.26
74615;BME280;63121;51.458;-0.110;2022-12-18T01:01:58;102121.09;;;1.60;70.18
74615;BME280;63121;51.458;-0.110;2022-12-18T01:04:23;102123.97;;;1.68;69.95
74615;BME280;63121;51.458;-0.110;2022-12-18T01:06:49;102114.66;;;1.51;69.71
74615;BME280;63121;51.458;-0.110;2022-12-18T01:09:14;102116.25;;;1.49;70.25
74615;BME280;63121;51.458;-0.110;2022-12-18T01:11:39;102116.78;;;1.41;70.21
74615;BME280;63121;51.458;-0.110;2022-12-18T01:14:05;102113.03;;;1.35;70.04
74615;BME280;63121;51.458;-0.110;2022-12-18T01:16:30;102113.13;;;1.36;70.74
74615;BME280;63121;51.458;-0.110;2022-12-18T01:18:56;102104.84;;;1.40;70.68
74615;BME280;63121;51.458;-0.110;2022-12-18T01:21:22;102101.50;;;1.41;71.17
74615;BME280;63121;51.458;-0.110;2022-12-18T01:23:52;102099.91;;;1.44;71.42
74615;BME280;63121;51.458;-0.110;2022-12-18T01:26:18;102096.00;;;1.50;71.56
74615;BME280;63121;51.458;-0.110;2022-12-18T01:28:44;102097.06;;;1.55;71.61
74615;BME280;63121;51.458;-0.110;2022-12-18T01:31:21;102087.50;;;1.50;70.97
74615;BME280;63121;51.458;-0.110;2022-12-18T01:33:47;102091.53;;;1.64;71.01
74615;BME280;63121;51.458;-0.110;2022-12-18T01:36:23;102090.03;;;1.50;70.83
74615;BME280;63121;51.458;-0.110;2022-12-18T01:38:48;102085.44;;;1.42;70.80
74615;BME280;63121;51.458;-0.110;2022-12-18T01:41:16;102084.03;;;1.49;70.91
74615;BME280;63121;51.458;-0.110;2022-12-18T01:43:57;102071.13;;;1.45;71.24
74615;BME280;63121;51.458;-0.110;2022-12-18T01:46:24;102062.69;;;1.46;70.58
74615;BME280;63121;51.458;-0.110;2022-12-18T01:48:55;102056.72;;;1.45;70.61
74615;BME280;63121;51.458;-0.110;2022-12-18T01:51:22;102063.19;;;1.38;71.00
74615;BME280;63121;51.458;-0.110;2022-12-18T01:53:48;102051.97;;;1.35;71.11
74615;BME280;63121;51.458;-0.110;2022-12-18T01:56:15;102052.56;;;1.29;71.28
74615;BME280;63121;51.458;-0.110;2022-12-18T02:01:09;102064.78;;;1.36;70.68
74615;BME280;63121;51.458;-0.110;2022-12-18T02:03:35;102064.78;;;1.36;71.10
74615;BME280;63121;51.458;-0.110;2022-12-18T02:08:45;102068.69;;;1.30;70.67
74615;BME280;63121;51.458;-0.110;2022-12-18T02:14:36;102071.16;;;1.28;70.07
74615;BME280;63121;51.458;-0.110;2022-12-18T02:17:07;102079.91;;;1.33;70.15
74615;BME280;63121;51.458;-0.110;2022-12-18T02:19:51;102081.28;;;1.27;70.10
74615;BME280;63121;51.458;-0.110;2022-12-18T02:22:55;102078.78;;;1.28;70.16
74615;BME280;63121;51.458;-0.110;2022-12-18T02:25:40;102079.38;;;1.23;70.34
74615;BME280;63121;51.458;-0.110;2022-12-18T02:28:12;102086.84;;;1.19;70.01
74615;BME280;63121;51.458;-0.110;2022-12-18T02:30:39;102085.91;;;1.17;70.18
74615;BME280;63121;51.458;-0.110;2022-12-18T02:33:07;102086.50;;;1.12;70.35
74615;BME280;63121;51.458;-0.110;2022-12-18T02:35:34;102085.44;;;1.25;69.94
74615;BME280;63121;51.458;-0.110;2022-12-18T02:38:01;102087.97;;;1.25;70.40
74615;BME280;63121;51.458;-0.110;2022-12-18T02:40:28;102093.56;;;1.35;69.96
74615;BME280;63121;51.458;-0.110;2022-12-18T02:42:54;102092.66;;;1.17;69.82
74615;BME280;63121;51.458;-0.110;2022-12-18T02:45:20;102106.13;;;1.32;69.52
74615;BME280;63121;51.458;-0.110;2022-12-18T02:47:48;102109.53;;;1.15;69.67
74615;BME280;63121;51.458;-0.110;2022-12-18T02:50:35;102109.53;;;1.15;70.30
74615;BME280;63121;51.458;-0.110;2022-12-18T02:58:24;102118.22;;;1.20;71.24
74615;BME280;63121;51.458;-0.110;2022-12-18T03:01:33;102099.97;;;1.27;71.25
74615;BME280;63121;51.458;-0.110;2022-12-18T03:04:05;102115.22;;;1.27;71.37
74615;BME280;63121;51.458;-0.110;2022-12-18T03:06:57;102106.78;;;1.28;71.30
74615;BME280;63121;51.458;-0.110;2022-12-18T03:09:29;102094.94;;;1.29;71.71
74615;BME280;63121;51.458;-0.110;2022-12-18T03:12:03;102098.97;;;1.41;71.61
74615;BME280;63121;51.458;-0.110;2022-12-18T03:14:52;102083.09;;;1.47;71.64
74615;BME280;63121;51.458;-0.110;2022-12-18T03:17:20;102072.34;;;1.53;70.97
74615;BME280;63121;51.458;-0.110;2022-12-18T03:19:49;102068.22;;;1.55;71.50
74615;BME280;63121;51.458;-0.110;2022-12-18T03:22:17;102066.31;;;1.51;71.70
74615;BME280;63121;51.458;-0.110;2022-12-18T03:24:44;102061.59;;;1.58;71.66
74615;BME280;63121;51.458;-0.110;2022-12-18T03:27:13;102069.06;;;1.55;71.26
74615;BME280;63121;51.458;-0.110;2022-12-18T03:29:43;102067.25;;;1.53;71.63
74615;BME280;63121;51.458;-0.110;2022-12-18T03:32:17;102070.97;;;1.59;72.13
74615;BME280;63121;51.458;-0.110;2022-12-18T03:34:46;102060.06;;;1.62;71.55
74615;BME280;63121;51.458;-0.110;2022-12-18T03:37:14;102061.31;;;1.52;72.59
74615;BME280;63121;51.458;-0.110;2022-12-18T03:39:40;102056.81;;;1.65;72.33
74615;BME280;63121;51.458;-0.110;2022-12-18T03:42:15;102059.41;;;1.66;71.63
74615;BME280;63121;51.458;-0.110;2022-12-18T03:45:09;102048.09;;;1.79;71.17
74615;BME280;63121;51.458;-0.110;2022-12-18T03:47:38;102056.41;;;1.75;71.50
74615;BME280;63121;51.458;-0.110;2022-12-18T03:50:50;102063.66;;;1.85;71.30
74615;BME280;63121;51.458;-0.110;2022-12-18T03:53:41;102058.53;;;1.83;70.98
74615;BME280;63121;51.458;-0.110;2022-12-18T03:56:10;102052.34;;;1.78;70.96
74615;BME280;63121;51.458;-0.110;2022-12-18T03:58:38;102048.28;;;1.64;71.18
74615;BME280;63121;51.458;-0.110;2022-12-18T04:01:09;102038.59;;;1.75;71.29
74615;BME280;63121;51.458;-0.110;2022-12-18T04:03:37;102035.09;;;1.73;71.13
74615;BME280;63121;51.458;-0.110;2022-12-18T04:06:04;102035.69;;;1.67;71.13
74615;BME280;63121;51.458;-0.110;2022-12-18T04:08:30;102033.75;;;1.61;72.22
74615;BME280;63121;51.458;-0.110;2022-12-18T04:10:56;102034.59;;;1.80;71.90
74615;BME280;63121;51.458;-0.110;2022-12-18T04:13:29;102025.16;;;1.77;71.46
74615;BME280;63121;51.458;-0.110;2022-12-18T04:15:54;102026.47;;;1.69;72.38
74615;BME280;63121;51.458;-0.110;2022-12-18T04:18:19;102036.00;;;1.73;71.86
74615;BME280;63121;51.458;-0.110;2022-12-18T04:20:45;102034.69;;;1.81;71.51
74615;BME280;63121;51.458;-0.110;2022-12-18T04:23:10;102030.28;;;1.79;71.63
74615;BME280;63121;51.458;-0.110;2022-12-18T04:25:36;102027.56;;;1.94;71.30
74615;BME280;63121;51.458;-0.110;2022-12-18T04:28:01;102027.34;;;1.70;71.95
74615;BME280;63121;51.458;-0.110;2022-12-18T04:30:27;102026.50;;;1.71;72.85
74615;BME280;63121;51.458;-0.110;2022-12-18T04:32:52;102024.63;;;1.85;71.96
74615;BME280;63121;51.458;-0.110;2022-12-18T04:35:18;102018.97;;;1.92;72.12
74615;BME280;63121;51.458;-0.110;2022-12-18T04:37:43;102013.09;;;1.93;71.60
74615;BME280;63121;51.458;-0.110;2022-12-18T04:40:09;102018.75;;;1.86;72.38
74615;BME280;63121;51.458;-0.110;2022-12-18T04:42:34;102011.63;;;1.98;72.07
74615;BME280;63121;51.458;-0.110;2022-12-18T04:44:59;102006.81;;;2.04;71.79
74615;BME280;63121;51.458;-0.110;2022-12-18T04:47:25;102011.91;;;2.04;72.27
74615;BME280;63121;51.458;-0.110;2022-12-18T04:49:50;102007.94;;;2.11;71.72
74615;BME280;63121;51.458;-0.110;2022-12-18T04:52:15;102003.41;;;2.23;71.65
74615;BME280;63121;51.458;-0.110;2022-12-18T04:54:41;101996.97;;;2.31;71.30
74615;BME280;63121;51.458;-0.110;2022-12-18T04:57:06;102004.53;;;2.30;71.73
74615;BME280;63121;51.458;-0.110;2022-12-18T04:59:32;101997.50;;;2.24;71.79
74615;BME280;63121;51.458;-0.110;2022-12-18T05:01:57;101998.56;;;2.29;71.91
74615;BME280;63121;51.458;-0.110;2022-12-18T05:04:22;101982.69;;;2.35;71.93
74615;BME280;63121;51.458;-0.110;2022-12-18T05:06:48;101970.88;;;2.37;71.84
74615;BME280;63121;51.458;-0.110;2022-12-18T05:09:13;101965.91;;;2.40;71.59
74615;BME280;63121;51.458;-0.110;2022-12-18T05:11:38;101965.38;;;2.28;71.94
74615;BME280;63121;51.458;-0.110;2022-12-18T05:14:04;101959.09;;;2.39;71.61
74615;BME280;63121;51.458;-0.110;2022-12-18T05:16:29;101952.59;;;2.26;71.92
74615;BME280;63121;51.458;-0.110;2022-12-18T05:18:54;101951.25;;;2.34;71.87
74615;BME280;63121;51.458;-0.110;2022-12-18T05:21:20;101947.28;;;2.41;72.23
74615;BME280;63121;51.458;-0.110;2022-12-18T05:23:45;101933.53;;;2.37;71.81
74615;BME280;63121;51.458;-0.110;2022-12-18T05:26:15;101934.59;;;2.42;71.88
74615;BME280;63121;51.458;-0.110;2022-12-18T05:28:41;101936.91;;;2.57;71.57
74615;BME280;63121;51.458;-0.110;2022-12-18T05:31:07;101929.75;;;2.70;71.35
74615;BME280;63121;51.458;-0.110;2022-12-18T05:33:34;101927.09;;;2.67;71.43
74615;BME280;63121;51.458;-0.110;2022-12-18T05:36:00;101924.03;;;2.75;71.47
74615;BME280;63121;51.458;-0.110;2022-12-18T05:38:27;101919.53;;;2.70;71.71
74615;BME280;63121;51.458;-0.110;2022-12-18T05:40:53;101917.56;;;2.62;71.94
74615;BME280;63121;51.458;-0.110;2022-12-18T05:43:19;101906.44;;;2.81;71.97
74615;BME280;63121;51.458;-0.110;2022-12-18T05:45:47;101901.41;;;2.83;71.93
74615;BME280;63121;51.458;-0.110;2022-12-18T05:48:13;101903.78;;;2.78;71.83
74615;BME280;63121;51.458;-0.110;2022-12-18T05:50:41;101895.91;;;2.74;72.20
74615;BME280;63121;51.458;-0.110;2022-12-18T05:53:07;101906.50;;;2.83;72.62
74615;BME280;63121;51.458;-0.110;2022-12-18T05:55:34;101898.28;;;2.69;72.78
74615;BME280;63121;51.458;-0.110;2022-12-18T05:58:00;101910.84;;;2.85;72.41
74615;BME280;63121;51.458;-0.110;2022-12-18T06:00:25;101910.78;;;2.84;73.14
74615;BME280;63121;51.458;-0.110;2022-12-18T06:02:51;101904.63;;;3.00;72.15
74615;BME280;63121;51.458;-0.110;2022-12-18T06:05:16;101889.81;;;2.91;72.01
74615;BME280;63121;51.458;-0.110;2022-12-18T06:07:41;101884.34;;;2.82;72.96
74615;BME280;63121;51.458;-0.110;2022-12-18T06:10:07;101892.63;;;2.97;72.38
74615;BME280;63121;51.458;-0.110;2022-12-18T06:12:32;101867.38;;;3.05;72.92
74615;BME280;63121;51.458;-0.110;2022-12-18T06:15:01;101861.13;;;2.97;72.73
74615;BME280;63121;51.458;-0.110;2022-12-18T06:17:30;101868.31;;;3.07;72.78
74615;BME280;63121;51.458;-0.110;2022-12-18T06:19:56;101871.72;;;3.30;71.91
74615;BME280;63121;51.458;-0.110;2022-12-18T06:22:22;101874.34;;;3.32;71.84
74615;BME280;63121;51.458;-0.110;2022-12-18T06:24:47;101866.97;;;3.39;71.43
74615;BME280;63121;51.458;-0.110;2022-12-18T06:27:12;101857.81;;;3.22;72.30
74615;BME280;63121;51.458;-0.110;2022-12-18T06:29:38;101832.91;;;3.39;71.71
74615;BME280;63121;51.458;-0.110;2022-12-18T06:32:03;101830.69;;;2.79;72.89
74615;BME280;63121;51.458;-0.110;2022-12-18T06:34:29;101825.31;;;3.40;71.64
74615;BME280;63121;51.458;-0.110;2022-12-18T06:36:54;101828.44;;;3.09;72.29
74615;BME280;63121;51.458;-0.110;2022-12-18T06:39:19;101818.16;;;3.08;72.26
74615;BME280;63121;51.458;-0.110;2022-12-18T06:41:45;101813.75;;;3.03;72.91
74615;BME280;63121;51.458;-0.110;2022-12-18T06:44:10;101806.53;;;3.14;71.97
74615;BME280;63121;51.458;-0.110;2022-12-18T06:46:36;101807.00;;;3.28;71.65
74615;BME280;63121;51.458;-0.110;2022-12-18T06:49:01;101795.81;;;3.24;71.95
74615;BME280;63121;51.458;-0.110;2022-12-18T06:51:26;101801.94;;;3.52;71.32
74615;BME280;63121;51.458;-0.110;2022-12-18T06:53:52;101800.50;;;3.36;71.33
74615;BME280;63121;51.458;-0.110;2022-12-18T06:56:17;101804.06;;;3.41;71.01
74615;BME280;63121;51.458;-0.110;2022-12-18T06:58:42;101811.84;;;3.44;71.18
74615;BME280;63121;51.458;-0.110;2022-12-18T07:01:11;101818.38;;;3.36;71.32
74615;BME280;63121;51.458;-0.110;2022-12-18T07:03:40;101815.81;;;3.36;71.43
74615;BME280;63121;51.458;-0.110;2022-12-18T07:06:06;101816.50;;;3.56;70.35
74615;BME280;63121;51.458;-0.110;2022-12-18T07:08:37;101806.06;;;3.49;70.98
74615;BME280;63121;51.458;-0.110;2022-12-18T07:11:03;101803.09;;;3.62;70.23
74615;BME280;63121;51.458;-0.110;2022-12-18T07:13:29;101794.28;;;3.52;70.83
74615;BME280;63121;51.458;-0.110;2022-12-18T07:15:55;101790.66;;;3.47;70.53
74615;BME280;63121;51.458;-0.110;2022-12-18T07:18:20;101788.03;;;3.44;71.09
74615;BME280;63121;51.458;-0.110;2022-12-18T07:20:45;101786.56;;;3.51;70.27
74615;BME280;63121;51.458;-0.110;2022-12-18T07:23:11;101788.97;;;3.47;70.46
74615;BME280;63121;51.458;-0.110;2022-12-18T07:25:37;101791.09;;;3.59;70.16
74615;BME280;63121;51.458;-0.110;2022-12-18T07:28:03;101793.16;;;3.70;70.08
74615;BME280;63121;51.458;-0.110;2022-12-18T07:30:29;101794.25;;;3.76;69.94
74615;BME280;63121;51.458;-0.110;2022-12-18T07:32:54;101785.75;;;3.77;69.72
74615;BME280;63121;51.458;-0.110;2022-12-18T07:35:20;101775.34;;;3.71;69.61
74615;BME280;63121;51.458;-0.110;2022-12-18T07:37:45;101771.59;;;3.61;70.01
74615;BME280;63121;51.458;-0.110;2022-12-18T07:40:11;101768.44;;;3.69;69.94
74615;BME280;63121;51.458;-0.110;2022-12-18T07:42:36;101760.84;;;3.70;69.83
74615;BME280;63121;51.458;-0.110;2022-12-18T07:45:02;101760.06;;;3.73;69.77
74615;BME280;63121;51.458;-0.110;2022-12-18T07:47:28;101756.22;;;3.60;69.85
74615;BME280;63121;51.458;-0.110;2022-12-18T07:49:54;101748.06;;;3.70;69.32
74615;BME280;63121;51.458;-0.110;2022-12-18T07:52:19;101750.69;;;3.47;69.74
74615;BME280;63121;51.458;-0.110;2022-12-18T07:54:45;101749.97;;;3.52;69.94
74615;BME280;63121;51.458;-0.110;2022-12-18T07:57:10;101747.72;;;3.85;68.88
74615;BME280;63121;51.458;-0.110;2022-12-18T07:59:36;101738.66;;;3.95;68.64
74615;BME280;63121;51.458;-0.110;2022-12-18T08:02:02;101738.97;;;3.53;69.42
74615;BME280;63121;51.458;-0.110;2022-12-18T08:04:28;101723.72;;;3.80;69.01
74615;BME280;63121;51.458;-0.110;2022-12-18T08:06:53;101734.06;;;3.59;69.27
74615;BME280;63121;51.458;-0.110;2022-12-18T08:09:19;101738.00;;;3.75;69.03
74615;BME280;63121;51.458;-0.110;2022-12-18T08:11:44;101737.22;;;4.03;68.47
74615;BME280;63121;51.458;-0.110;2022-12-18T08:14:10;101743.72;;;3.93;68.26
74615;BME280;63121;51.458;-0.110;2022-12-18T08:16:35;101730.50;;;4.05;68.41
74615;BME280;63121;51.458;-0.110;2022-12-18T08:19:01;101741.16;;;3.93;68.25
74615;BME280;63121;51.458;-0.110;2022-12-18T08:21:29;101738.91;;;4.02;68.31
74615;BME280;63121;51.458;-0.110;2022-12-18T08:23:57;101748.47;;;3.82;68.31
74615;BME280;63121;51.458;-0.110;2022-12-18T08:26:25;101748.78;;;3.92;67.98
74615;BME280;63121;51.458;-0.110;2022-12-18T08:28:54;101745.34;;;3.91;68.64
74615;BME280;63121;51.458;-0.110;2022-12-18T08:31:20;101743.91;;;3.99;68.27
74615;BME280;63121;51.458;-0.110;2022-12-18T08:33:48;101755.72;;;3.96;68.50
74615;BME280;63121;51.458;-0.110;2022-12-18T08:36:14;101761.50;;;4.17;67.83
74615;BME280;63121;51.458;-0.110;2022-12-18T08:38:40;101757.75;;;4.06;68.31
74615;BME280;63121;51.458;-0.110;2022-12-18T08:41:07;101763.91;;;4.11;67.61
74615;BME280;63121;51.458;-0.110;2022-12-18T08:43:32;101765.91;;;4.21;67.79
74615;BME280;63121;51.458;-0.110;2022-12-18T08:46:20;101764.44;;;4.28;67.73
74615;BME280;63121;51.458;-0.110;2022-12-18T08:48:47;101762.94;;;4.35;67.26
74615;BME280;63121;51.458;-0.110;2022-12-18T08:51:13;101748.22;;;4.27;67.34
74615;BME280;63121;51.458;-0.110;2022-12-18T08:53:41;101749.00;;;4.25;66.98
74615;BME280;63121;51.458;-0.110;2022-12-18T08:56:07;101758.34;;;4.24;67.11
74615;BME280;63121;51.458;-0.110;2022-12-18T08:58:32;101763.66;;;4.31;67.12
74615;BME280;63121;51.458;-0.110;2022-12-18T09:01:03;101756.91;;;4.33;67.23
74615;BME280;63121;51.458;-0.110;2022-12-18T09:03:28;101752.06;;;4.42;66.85
74615;BME280;63121;51.458;-0.110;2022-12-18T09:05:54;101751.06;;;4.37;67.32
74615;BME280;63121;51.458;-0.110;2022-12-18T09:08:20;101738.81;;;4.54;66.46
74615;BME280;63121;51.458;-0.110;2022-12-18T09:10:47;101728.06;;;4.37;67.23
74615;BME280;63121;51.458;-0.110;2022-12-18T09:13:14;101740.94;;;4.40;66.97
74615;BME280;63121;51.458;-0.110;2022-12-18T09:15:51;101742.94;;;4.50;67.13
74615;BME280;63121;51.458;-0.110;2022-12-18T09:18:19;101738.47;;;4.43;67.46
74615;BME280;63121;51.458;-0.110;2022-12-18T09:20:45;101744.59;;;4.48;67.05
74615;BME280;63121;51.458;-0.110;2022-12-18T09:23:14;101751.47;;;4.49;67.30
74615;BME280;63121;51.458;-0.110;2022-12-18T09:25:40;101736.84;;;4.46;67.42
74615;BME280;63121;51.458;-0.110;2022-12-18T09:28:10;101728.06;;;4.65;66.79
74615;BME280;63121;51.458;-0.110;2022-12-18T09:30:41;101734.50;;;4.53;67.18
74615;BME280;63121;51.458;-0.110;2022-12-18T09:33:07;101743.41;;;4.65;66.66
74615;BME280;63121;51.458;-0.110;2022-12-18T09:35:32;101741.16;;;4.76;66.39
74615;BME280;63121;51.458;-0.110;2022-12-18T09:37:57;101757.41;;;4.78;66.25
74615;BME280;63121;51.458;-0.110;2022-12-18T09:40:25;101755.44;;;4.68;66.99
74615;BME280;63121;51.458;-0.110;2022-12-18T09:42:59;101761.66;;;4.78;66.44
74615;BME280;63121;51.458;-0.110;2022-12-18T09:45:25;101765.88;;;4.76;66.62
74615;BME280;63121;51.458;-0.110;2022-12-18T09:47:53;101765.31;;;4.86;66.47
74615;BME280;63121;51.458;-0.110;2022-12-18T09:50:32;101765.81;;;4.74;66.56
74615;BME280;63121;51.458;-0.110;2022-12-18T09:53:04;101768.72;;;4.85;66.24
74615;BME280;63121;51.458;-0.110;2022-12-18T09:55:37;101756.13;;;4.93;66.40
74615;BME280;63121;51.458;-0.110;2022-12-18T09:58:15;101752.72;;;4.92;66.45
74615;BME280;63121;51.458;-0.110;2022-12-18T10:00:42;101753.78;;;5.00;65.74
74615;BME280;63121;51.458;-0.110;2022-12-18T10:03:13;101756.31;;;4.99;65.92
74615;BME280;63121;51.458;-0.110;2022-12-18T10:20:02;101752.16;;;5.34;65.09
74615;BME280;63121;51.458;-0.110;2022-12-18T10:27:42;101739.19;;;5.28;65.28
74615;BME280;63121;51.458;-0.110;2022-12-18T10:30:20;101736.19;;;5.43;64.72
74615;BME280;63121;51.458;-0.110;2022-12-18T10:32:46;101739.88;;;5.54;64.67
74615;BME280;63121;51.458;-0.110;2022-12-18T10:35:22;101722.75;;;5.52;64.39
74615;BME280;63121;51.458;-0.110;2022-12-18T10:38:06;101736.47;;;5.54;64.36
74615;BME280;63121;51.458;-0.110;2022-12-18T10:40:32;101728.25;;;5.67;64.22
74615;BME280;63121;51.458;-0.110;2022-12-18T10:43:05;101723.44;;;5.46;64.11
74615;BME280;63121;51.458;-0.110;2022-12-18T10:45:35;101712.78;;;5.62;64.10
74615;BME280;63121;51.458;-0.110;2022-12-18T10:48:01;101705.50;;;5.78;63.33
74615;BME280;63121;51.458;-0.110;2022-12-18T10:50:34;101697.84;;;5.14;65.04
74615;BME280;63121;51.458;-0.110;2022-12-18T10:53:03;101696.91;;;5.76;63.69
74615;BME280;63121;51.458;-0.110;2022-12-18T10:55:37;101686.66;;;5.76;63.27
74615;BME280;63121;51.458;-0.110;2022-12-18T11:01:08;101663.19;;;5.59;63.60
74615;BME280;63121;51.458;-0.110;2022-12-18T11:03:35;101648.53;;;5.53;63.92
74615;BME280;63121;51.458;-0.110;2022-12-18T11:06:09;101647.03;;;5.63;63.66
74615;BME280;63121;51.458;-0.110;2022-12-18T11:08:35;101635.44;;;5.77;63.53
74615;BME280;63121;51.458;-0.110;2022-12-18T11:11:01;101623.97;;;5.98;62.92
74615;BME280;63121;51.458;-0.110;2022-12-18T11:13:29;101618.81;;;5.95;63.19
74615;BME280;63121;51.458;-0.110;2022-12-18T11:15:55;101619.44;;;5.87;63.02
74615;BME280;63121;51.458;-0.110;2022-12-18T11:18:27;101631.19;;;5.78;63.54
74615;BME280;63121;51.458;-0.110;2022-12-18T11:20:59;101629.94;;;5.97;63.12
74615;BME280;63121;51.458;-0.110;2022-12-18T11:23:27;101632.09;;;6.16;62.96
74615;BME280;63121;51.458;-0.110;2022-12-18T11:25:58;101621.97;;;6.22;62.78
74615;BME280;63121;51.458;-0.110;2022-12-18T11:29:07;101630.19;;;6.09;63.24
74615;BME280;63121;51.458;-0.110;2022-12-18T11:31:32;101623.31;;;6.06;63.37
74615;BME280;63121;51.458;-0.110;2022-12-18T11:36:23;101603.66;;;6.07;65.15
74615;BME280;63121;51.458;-0.110;2022-12-18T11:38:52;101597.91;;;6.16;64.97
74615;BME280;63121;51.458;-0.110;2022-12-18T11:41:34;101588.19;;;6.02;65.51
74615;BME280;63121;51.458;-0.110;2022-12-18T11:44:27;101588.41;;;6.13;65.69
74615;BME280;63121;51.458;-0.110;2022-12-18T11:47:03;101574.66;;;6.08;65.99
74615;BME280;63121;51.458;-0.110;2022-12-18T11:49:34;101576.94;;;5.96;66.58
74615;BME280;63121;51.458;-0.110;2022-12-18T11:52:08;101574.81;;;5.40;68.65
74615;BME280;63121;51.458;-0.110;2022-12-18T11:54:35;101571.00;;;5.97;67.31
74615;BME280;63121;51.458;-0.110;2022-12-18T11:57:25;101574.09;;;5.83;68.13
74615;BME280;63121;51.458;-0.110;2022-12-18T12:14:44;101534.34;;;5.61;70.69
74615;BME280;63121;51.458;-0.110;2022-12-18T12:17:12;101522.44;;;5.63;70.46
74615;BME280;63121;51.458;-0.110;2022-12-18T12:30:09;101470.59;;;5.36;72.47
74615;BME280;63121;51.458;-0.110;2022-12-18T12:40:23;101468.31;;;5.49;72.41
74615;BME280;63121;51.458;-0.110;2022-12-18T12:42:54;101457.75;;;5.74;71.84
74615;BME280;63121;51.458;-0.110;2022-12-18T12:45:53;101459.72;;;5.87;71.44
74615;BME280;63121;51.458;-0.110;2022-12-18T12:48:50;101465.75;;;5.49;73.62
74615;BME280;63121;51.458;-0.110;2022-12-18T12:51:21;101463.44;;;5.59;73.53
74615;BME280;63121;51.458;-0.110;2022-12-18T12:53:48;101447.38;;;5.69;72.49
74615;BME280;63121;51.458;-0.110;2022-12-18T12:56:17;101445.16;;;5.84;72.09
74615;BME280;63121;51.458;-0.110;2022-12-18T12:59:02;101451.56;;;5.64;72.89
74615;BME280;63121;51.458;-0.110;2022-12-18T13:01:54;101456.81;;;5.30;74.37
74615;BME280;63121;51.458;-0.110;2022-12-18T13:04:34;101442.03;;;5.58;73.58
74615;BME280;63121;51.458;-0.110;2022-12-18T13:07:27;101436.88;;;5.55;73.20
74615;BME280;63121;51.458;-0.110;2022-12-18T13:10:14;101430.53;;;5.38;74.24
74615;BME280;63121;51.458;-0.110;2022-12-18T13:12:56;101412.72;;;5.44;73.51
74615;BME280;63121;51.458;-0.110;2022-12-18T13:20:40;101385.91;;;5.25;74.94
74615;BME280;63121;51.458;-0.110;2022-12-18T13:36:37;101363.34;;;5.49;74.14
74615;BME280;63121;51.458;-0.110;2022-12-18T13:44:39;101353.94;;;5.07;75.47
74615;BME280;63121;51.458;-0.110;2022-12-18T13:47:27;101351.38;;;5.48;75.00
74615;BME280;63121;51.458;-0.110;2022-12-18T13:49:54;101342.59;;;5.36;75.11
74615;BME280;63121;51.458;-0.110;2022-12-18T13:52:26;101340.16;;;5.43;74.40
74615;BME280;63121;51.458;-0.110;2022-12-18T13:55:02;101331.75;;;5.49;74.73
74615;BME280;63121;51.458;-0.110;2022-12-18T13:57:30;101316.84;;;5.28;75.47
74615;BME280;63121;51.458;-0.110;2022-12-18T13:59:57;101312.03;;;5.45;74.42
74615;BME280;63121;51.458;-0.110;2022-12-18T14:02:28;101322.63;;;5.19;75.82
74615;BME280;63121;51.458;-0.110;2022-12-18T14:04:54;101314.31;;;5.31;75.79
74615;BME280;63121;51.458;-0.110;2022-12-18T14:07:25;101320.13;;;5.22;75.72
74615;BME280;63121;51.458;-0.110;2022-12-18T14:10:00;101321.41;;;5.02;76.35
74615;BME280;63121;51.458;-0.110;2022-12-18T14:12:28;101320.59;;;5.45;75.23
74615;BME280;63121;51.458;-0.110;2022-12-18T14:15:42;101311.53;;;5.19;76.52
74615;BME280;63121;51.458;-0.110;2022-12-18T14:18:21;101295.88;;;5.47;75.67
74615;BME280;63121;51.458;-0.110;2022-12-18T14:20:50;101297.53;;;5.45;75.56
74615;BME280;63121;51.458;-0.110;2022-12-18T14:23:40;101307.09;;;5.54;75.70
74615;BME280;63121;51.458;-0.110;2022-12-18T14:26:26;101305.53;;;5.17;76.54
74615;BME280;63121;51.458;-0.110;2022-12-18T14:28:58;101309.84;;;5.65;75.61
74615;BME280;63121;51.458;-0.110;2022-12-18T14:31:28;101296.69;;;5.45;76.31
74615;BME280;63121;51.458;-0.110;2022-12-18T14:33:55;101295.19;;;5.56;75.78
74615;BME280;63121;51.458;-0.110;2022-12-18T14:36:28;101305.72;;;5.73;75.52
74615;BME280;63121;51.458;-0.110;2022-12-18T14:41:56;101282.13;;;5.44;76.46